aviador You're here:

WBKL Decoded Metar

LABUAN in MALAYSIA
Report Time2017-09-23 18:00:00
UTC Time2017-09-23 18:23:06
Flight Rules vfr VFR
WindCalm
Visibility9999 m
Phenomena:N/A
Clouds:Few 014 Hf
Broken 290 Hf
Expected CloudBase > 800 ft AGL from Temp-Dew spread
Ceiling29,000 ft
Temp27°C (ISA +12)
Dew Point25°C (89% RH)
Heat Index30.6°C
QNH1010 hPa
Density Alt2,021 ft
Elevation98 ft
Report Wrong Elevation
Raw Report
WBKL 231800Z 00000KT 9999 FEW014 BKN290 27/25 Q1010=

Extra information for WBKL:More info

Metar Taf Metar & Taf Last 4 Metars F.Rules Stats Wind Profile Meteogram Temp Stats Airport Information Weather charts Add Link Nearby VenuesMetar ALERT Operation Metar Decoded Social comments